createdAt,value
2019-01-13T00:02:16.081Z,4.00
2019-01-13T00:04:45.855Z,4.00
2019-01-13T00:07:15.540Z,4.00
2019-01-13T00:09:45.213Z,4.00
2019-01-13T00:12:15.203Z,4.10
2019-01-13T00:14:45.030Z,4.20
2019-01-13T00:17:16.283Z,4.20
2019-01-13T00:19:46.008Z,4.20
2019-01-13T00:22:15.733Z,4.20
2019-01-13T00:24:45.426Z,4.20
2019-01-13T00:27:15.395Z,4.30
2019-01-13T00:29:45.116Z,4.40
2019-01-13T00:32:14.822Z,4.50
2019-01-13T00:34:44.658Z,4.50
2019-01-13T00:37:14.308Z,4.60
2019-01-13T00:39:43.979Z,4.60
2019-01-13T00:42:13.898Z,4.60
2019-01-13T00:44:43.851Z,4.60
2019-01-13T00:47:13.850Z,4.60
2019-01-13T00:49:43.655Z,4.70
2019-01-13T00:52:13.526Z,4.70
2019-01-13T00:54:43.261Z,4.70
2019-01-13T00:57:12.960Z,4.70
2019-01-13T00:59:42.629Z,4.60
2019-01-13T01:02:12.435Z,4.60
2019-01-13T01:04:42.148Z,4.60
2019-01-13T01:07:11.974Z,4.60
2019-01-13T01:09:41.668Z,4.60
2019-01-13T01:12:11.476Z,4.50
2019-01-13T01:14:41.197Z,4.50
2019-01-13T01:17:10.864Z,4.50
2019-01-13T01:19:40.784Z,4.60
2019-01-13T01:22:10.456Z,4.60
2019-01-13T01:24:40.113Z,4.60
2019-01-13T01:27:09.923Z,4.60
2019-01-13T01:29:39.669Z,4.60
2019-01-13T01:32:09.419Z,4.60
2019-01-13T01:34:39.194Z,4.60
2019-01-13T01:37:08.873Z,4.50
2019-01-13T01:39:38.531Z,4.60
2019-01-13T01:42:08.309Z,4.50
2019-01-13T01:44:38.069Z,4.50
2019-01-13T01:47:07.810Z,4.50
2019-01-13T01:49:37.712Z,4.50
2019-01-13T01:52:07.497Z,4.50
2019-01-13T01:54:37.169Z,4.60
2019-01-13T01:57:07.054Z,4.60
2019-01-13T01:59:37.551Z,4.50
2019-01-13T02:02:08.351Z,4.60
2019-01-13T02:04:38.065Z,4.60
2019-01-13T02:07:07.743Z,4.60
2019-01-13T02:09:37.435Z,4.50
2019-01-13T02:12:07.244Z,4.60
2019-01-13T02:14:37.092Z,4.60
2019-01-13T02:17:07.111Z,4.60
2019-01-13T02:19:36.934Z,4.50
2019-01-13T02:22:06.799Z,4.50
2019-01-13T02:24:36.474Z,4.50
2019-01-13T02:27:07.337Z,4.60
2019-01-13T02:29:37.015Z,4.60
2019-01-13T02:32:06.684Z,4.60
2019-01-13T02:34:36.400Z,4.70
2019-01-13T02:37:06.209Z,4.70
2019-01-13T02:39:35.974Z,4.70
2019-01-13T02:42:05.852Z,4.70
2019-01-13T02:44:35.582Z,4.70
2019-01-13T02:47:05.273Z,4.70
2019-01-13T02:49:35.041Z,4.70
2019-01-13T02:52:04.808Z,4.70
2019-01-13T02:54:34.493Z,4.70
2019-01-13T02:57:04.221Z,4.70
2019-01-13T02:59:33.917Z,4.70
2019-01-13T03:02:03.589Z,4.70
2019-01-13T03:04:33.415Z,4.60
2019-01-13T03:07:03.163Z,4.70
2019-01-13T03:09:32.841Z,4.70
2019-01-13T03:12:02.737Z,4.70
2019-01-13T03:14:32.412Z,4.70
2019-01-13T03:17:02.096Z,4.70
2019-01-13T03:19:31.935Z,4.70
2019-01-13T03:22:01.621Z,4.60
2019-01-13T03:24:31.444Z,4.60
2019-01-13T03:27:01.173Z,4.60
2019-01-13T03:29:30.830Z,4.60
2019-01-13T03:32:00.499Z,4.60
2019-01-13T03:34:30.220Z,4.60
2019-01-13T03:36:59.898Z,4.60
2019-01-13T03:39:29.641Z,4.60
2019-01-13T03:41:59.438Z,4.60
2019-01-13T03:44:29.119Z,4.60
2019-01-13T03:46:58.806Z,4.60
2019-01-13T03:49:28.595Z,4.60
2019-01-13T03:51:58.419Z,4.50
2019-01-13T03:54:28.102Z,4.50
2019-01-13T03:56:57.981Z,4.50
2019-01-13T03:59:27.669Z,4.50
2019-01-13T04:01:57.425Z,4.50
2019-01-13T04:04:27.146Z,4.40
2019-01-13T04:06:56.892Z,4.50
2019-01-13T04:09:26.612Z,4.60
2019-01-13T04:11:56.445Z,4.60
2019-01-13T04:14:26.112Z,4.50
2019-01-13T04:16:56.088Z,4.50
2019-01-13T04:19:25.908Z,4.60
2019-01-13T04:21:55.569Z,4.50
2019-01-13T04:24:25.234Z,4.60
2019-01-13T04:26:54.987Z,4.60
2019-01-13T04:29:24.744Z,4.60
2019-01-13T04:31:54.471Z,4.50
2019-01-13T04:34:24.250Z,4.50
2019-01-13T04:36:53.943Z,4.50
2019-01-13T04:39:23.644Z,4.50
2019-01-13T04:41:53.393Z,4.60
2019-01-13T04:44:23.063Z,4.60
2019-01-13T04:46:52.724Z,4.60
2019-01-13T04:49:22.461Z,4.70
2019-01-13T04:51:52.134Z,4.60
2019-01-13T04:54:21.848Z,4.70
2019-01-13T04:56:51.762Z,4.60
2019-01-13T04:59:21.599Z,4.60
2019-01-13T05:01:51.274Z,4.60
2019-01-13T05:04:21.126Z,4.70
2019-01-13T05:06:50.853Z,4.70
2019-01-13T05:09:20.526Z,4.80
2019-01-13T05:11:50.239Z,4.80
2019-01-13T05:14:19.923Z,4.80
2019-01-13T05:16:49.643Z,4.80
2019-01-13T05:19:19.337Z,4.80
2019-01-13T05:21:49.005Z,4.70
2019-01-13T05:24:18.666Z,4.70
2019-01-13T05:26:48.375Z,4.60
2019-01-13T05:29:18.034Z,4.70
2019-01-13T05:31:47.691Z,4.60
2019-01-13T05:34:17.402Z,4.70
2019-01-13T05:36:47.084Z,4.70
2019-01-13T05:39:16.742Z,4.70
2019-01-13T05:41:46.458Z,4.70
2019-01-13T05:44:16.129Z,4.80
2019-01-13T05:46:45.795Z,4.80
2019-01-13T05:49:15.570Z,4.80
2019-01-13T05:51:45.258Z,4.80
2019-01-13T05:54:14.942Z,4.80
2019-01-13T05:56:44.763Z,4.80
2019-01-13T05:59:14.434Z,4.80
2019-01-13T06:01:49.182Z,4.80
2019-01-13T06:04:15.513Z,4.70
2019-01-13T06:06:45.176Z,4.70
2019-01-13T06:09:14.935Z,4.60
2019-01-13T06:11:44.628Z,4.60
2019-01-13T06:14:14.286Z,4.70
2019-01-13T06:16:43.942Z,4.70
2019-01-13T06:19:13.647Z,4.70
2019-01-13T06:21:43.319Z,4.70
2019-01-13T06:24:12.973Z,4.70
2019-01-13T06:26:42.770Z,4.70
2019-01-13T06:29:12.417Z,4.70
2019-01-13T06:31:42.074Z,4.70
2019-01-13T06:34:12.984Z,4.70
2019-01-13T06:36:42.676Z,4.70
2019-01-13T06:39:12.350Z,4.70
2019-01-13T06:41:42.183Z,4.70
2019-01-13T06:44:11.856Z,4.70
2019-01-13T06:46:41.600Z,4.70
2019-01-13T06:49:11.678Z,4.70
2019-01-13T06:51:41.547Z,4.70
2019-01-13T06:54:11.269Z,4.60
2019-01-13T06:56:40.995Z,4.60
2019-01-13T06:59:10.758Z,4.60
2019-01-13T07:01:40.426Z,4.50
2019-01-13T07:04:10.142Z,4.60
2019-01-13T07:06:39.815Z,4.60
2019-01-13T07:09:09.650Z,4.60
2019-01-13T07:11:39.376Z,4.70
2019-01-13T07:14:09.233Z,4.70
2019-01-13T07:16:38.911Z,4.80
2019-01-13T07:19:08.647Z,4.80
2019-01-13T07:21:38.326Z,4.80
2019-01-13T07:24:07.984Z,4.80
2019-01-13T07:26:37.707Z,4.80
2019-01-13T07:29:07.416Z,4.80
2019-01-13T07:31:37.102Z,4.80
2019-01-13T07:34:06.800Z,4.80
2019-01-13T07:36:36.483Z,4.90
2019-01-13T07:39:08.364Z,4.90
2019-01-13T07:41:38.096Z,4.90
2019-01-13T07:44:07.875Z,5.00
2019-01-13T07:46:37.547Z,5.00
2019-01-13T07:49:07.326Z,5.00
2019-01-13T07:51:36.970Z,5.00
2019-01-13T07:54:06.698Z,5.00
2019-01-13T07:56:36.359Z,5.10
2019-01-13T07:59:06.070Z,5.10
2019-01-13T08:01:35.726Z,5.10
2019-01-13T08:04:05.948Z,5.10
2019-01-13T08:06:35.613Z,5.20
2019-01-13T08:09:08.324Z,5.20
2019-01-13T08:11:38.035Z,5.20
2019-01-13T08:14:07.818Z,5.20
2019-01-13T08:16:37.498Z,5.20
2019-01-13T08:19:07.229Z,5.20
2019-01-13T08:21:36.941Z,5.30
2019-01-13T08:24:06.630Z,5.40
2019-01-13T08:26:36.338Z,5.40
2019-01-13T08:29:06.058Z,5.50
2019-01-13T08:31:35.741Z,5.50
2019-01-13T08:34:05.693Z,5.40
2019-01-13T08:36:35.483Z,5.50
2019-01-13T08:39:08.067Z,5.50
2019-01-13T08:41:39.922Z,5.50
2019-01-13T08:44:09.602Z,5.60
2019-01-13T08:46:39.307Z,5.60
2019-01-13T08:49:09.010Z,5.70
2019-01-13T08:51:38.738Z,5.80
2019-01-13T08:54:08.451Z,5.80
2019-01-13T08:56:38.165Z,5.80
2019-01-13T08:59:07.884Z,5.80
2019-01-13T09:01:37.570Z,5.80
2019-01-13T09:04:07.269Z,5.70
2019-01-13T09:06:36.927Z,5.80
2019-01-13T09:09:09.360Z,5.90
2019-01-13T09:11:39.154Z,6.00
2019-01-13T09:14:08.934Z,6.10
2019-01-13T09:16:38.746Z,6.20
2019-01-13T09:19:08.422Z,6.30
2019-01-13T09:21:38.121Z,6.30
2019-01-13T09:24:07.791Z,6.40
2019-01-13T09:26:38.827Z,6.40
2019-01-13T09:29:08.898Z,6.50
2019-01-13T09:31:38.645Z,6.70
2019-01-13T09:34:08.328Z,6.60
2019-01-13T09:36:38.068Z,6.60
2019-01-13T09:39:08.735Z,6.60
2019-01-13T09:41:38.402Z,6.60
2019-01-13T09:44:08.128Z,6.60
2019-01-13T09:46:37.844Z,6.60
2019-01-13T09:49:07.549Z,6.50
2019-01-13T09:51:37.303Z,6.60
2019-01-13T09:54:07.006Z,6.80
2019-01-13T09:56:36.702Z,6.90
2019-01-13T09:59:06.642Z,6.90
2019-01-13T10:01:36.468Z,7.00
2019-01-13T10:04:06.146Z,7.10
2019-01-13T10:06:35.977Z,7.10
2019-01-13T10:09:08.176Z,7.20
2019-01-13T10:11:37.937Z,7.30
2019-01-13T10:14:07.702Z,7.50
2019-01-13T10:16:37.373Z,7.60
2019-01-13T10:19:07.107Z,7.80
2019-01-13T10:21:36.790Z,7.80
2019-01-13T10:24:06.531Z,7.60
2019-01-13T10:26:36.189Z,7.40
2019-01-13T10:29:05.882Z,7.20
2019-01-13T10:31:35.554Z,7.10
2019-01-13T10:34:05.301Z,7.10
2019-01-13T10:36:35.142Z,7.10
2019-01-13T10:39:08.679Z,7.10
2019-01-13T10:41:38.551Z,7.00
2019-01-13T10:44:08.413Z,6.90
2019-01-13T10:46:38.261Z,6.80
2019-01-13T10:49:08.022Z,6.80
2019-01-13T10:51:37.694Z,6.90
2019-01-13T10:54:09.197Z,7.00
2019-01-13T10:56:38.757Z,7.10
2019-01-13T10:59:08.489Z,7.10
2019-01-13T11:01:38.163Z,7.00
2019-01-13T11:04:07.990Z,7.00
2019-01-13T11:06:37.803Z,7.00
2019-01-13T11:09:13.504Z,6.90
2019-01-13T11:11:43.182Z,7.00
2019-01-13T11:14:12.843Z,7.00
2019-01-13T11:16:42.573Z,7.10
2019-01-13T11:19:12.267Z,7.20
2019-01-13T11:21:41.950Z,7.20
2019-01-13T11:24:11.665Z,7.20
2019-01-13T11:26:41.336Z,7.10
2019-01-13T11:29:11.053Z,7.10
2019-01-13T11:31:40.705Z,7.10
2019-01-13T11:34:10.419Z,7.20
2019-01-13T11:36:42.388Z,7.20
2019-01-13T11:39:12.038Z,7.20
2019-01-13T11:41:41.735Z,7.30
2019-01-13T11:44:11.377Z,7.50
2019-01-13T11:46:41.113Z,7.60
2019-01-13T11:49:10.787Z,7.50
2019-01-13T11:51:40.473Z,7.50
2019-01-13T11:54:10.157Z,7.40
2019-01-13T11:56:39.825Z,7.40
2019-01-13T11:59:10.227Z,7.30
2019-01-13T12:01:39.879Z,7.30
2019-01-13T12:04:09.578Z,7.20
2019-01-13T12:06:39.301Z,7.20
2019-01-13T12:09:09.466Z,7.20
2019-01-13T12:11:39.144Z,7.10
2019-01-13T12:14:08.821Z,7.10
2019-01-13T12:16:38.499Z,7.10
2019-01-13T12:19:08.305Z,7.20
2019-01-13T12:21:38.054Z,7.30
2019-01-13T12:24:07.742Z,7.40
2019-01-13T12:26:37.499Z,7.40
2019-01-13T12:29:07.175Z,7.40
2019-01-13T12:31:36.894Z,7.40
2019-01-13T12:34:06.699Z,7.50
2019-01-13T12:36:36.371Z,7.50
2019-01-13T12:39:11.107Z,7.50
2019-01-13T12:41:40.799Z,7.50
2019-01-13T12:44:10.515Z,7.50
2019-01-13T12:46:40.174Z,7.60
2019-01-13T12:49:09.880Z,7.50
2019-01-13T12:51:39.566Z,7.50
2019-01-13T12:54:09.223Z,7.50
2019-01-13T12:56:38.923Z,7.40
2019-01-13T12:59:12.293Z,7.30
2019-01-13T13:01:41.992Z,7.40
2019-01-13T13:04:11.708Z,7.40
2019-01-13T13:06:41.447Z,7.40
2019-01-13T13:09:11.122Z,7.40
2019-01-13T13:11:40.893Z,7.30
2019-01-13T13:14:10.592Z,7.30
2019-01-13T13:16:40.251Z,7.30
2019-01-13T13:19:09.987Z,7.30
2019-01-13T13:21:39.674Z,7.20
2019-01-13T13:24:09.390Z,7.10
2019-01-13T13:26:39.061Z,7.00
2019-01-13T13:29:08.727Z,6.90
2019-01-13T13:31:38.572Z,6.90
2019-01-13T13:34:08.227Z,6.80
2019-01-13T13:36:38.055Z,6.70
2019-01-13T13:39:10.006Z,6.70
2019-01-13T13:41:42.193Z,6.70
2019-01-13T13:44:11.910Z,6.70
2019-01-13T13:46:41.613Z,6.50
2019-01-13T13:49:11.326Z,6.50
2019-01-13T13:51:40.997Z,6.50
2019-01-13T13:54:10.701Z,6.50
2019-01-13T13:56:40.390Z,6.50
2019-01-13T13:59:10.330Z,6.40
2019-01-13T14:01:39.987Z,6.40
2019-01-13T14:04:09.644Z,6.30
2019-01-13T14:06:39.353Z,6.30
2019-01-13T14:09:10.123Z,6.30
2019-01-13T14:11:39.888Z,6.20
2019-01-13T14:14:09.530Z,6.10
2019-01-13T14:16:39.269Z,6.10
2019-01-13T14:19:08.938Z,6.10
2019-01-13T14:21:38.597Z,6.00
2019-01-13T14:24:08.333Z,6.10
2019-01-13T14:26:38.079Z,6.20
2019-01-13T14:29:07.780Z,6.20
2019-01-13T14:31:37.496Z,6.10
2019-01-13T14:34:07.198Z,6.00
2019-01-13T14:36:36.876Z,6.00
2019-01-13T14:39:09.041Z,6.00
2019-01-13T14:41:38.778Z,6.00
2019-01-13T14:44:08.466Z,5.90
2019-01-13T14:46:38.178Z,5.90
2019-01-13T14:49:07.854Z,5.80
2019-01-13T14:51:37.600Z,5.90
2019-01-13T14:54:07.269Z,5.90
2019-01-13T14:56:37.082Z,5.80
2019-01-13T14:59:06.755Z,5.80
2019-01-13T15:01:36.478Z,5.80
2019-01-13T15:04:06.170Z,5.80
2019-01-13T15:06:35.866Z,5.80
2019-01-13T15:09:10.156Z,5.80
2019-01-13T15:11:39.876Z,5.70
2019-01-13T15:14:09.707Z,5.70
2019-01-13T15:16:39.442Z,5.60
2019-01-13T15:19:09.106Z,5.60
2019-01-13T15:21:38.810Z,5.60
2019-01-13T15:24:09.850Z,5.50
2019-01-13T15:26:39.621Z,5.40
2019-01-13T15:29:09.675Z,5.40
2019-01-13T15:31:39.486Z,5.40
2019-01-13T15:34:09.198Z,5.50
2019-01-13T15:36:38.905Z,5.50
2019-01-13T15:39:09.495Z,5.50
2019-01-13T15:41:39.167Z,5.50
2019-01-13T15:44:09.143Z,5.40
2019-01-13T15:46:38.904Z,5.50
2019-01-13T15:49:08.595Z,5.50
2019-01-13T15:51:38.343Z,5.50
2019-01-13T15:54:08.067Z,5.50
2019-01-13T15:56:37.766Z,5.50
2019-01-13T15:59:07.460Z,5.40
2019-01-13T16:01:37.233Z,5.50
2019-01-13T16:04:14.223Z,5.50
2019-01-13T16:06:38.472Z,5.50
2019-01-13T16:09:09.801Z,5.40
2019-01-13T16:11:39.513Z,5.40
2019-01-13T16:14:09.281Z,5.50
2019-01-13T16:16:38.982Z,5.50
2019-01-13T16:19:08.705Z,5.50
2019-01-13T16:21:38.419Z,5.40
2019-01-13T16:24:08.177Z,5.50
2019-01-13T16:26:37.912Z,5.50
2019-01-13T16:29:07.643Z,5.50
2019-01-13T16:31:37.366Z,5.50
2019-01-13T16:34:07.195Z,5.40
2019-01-13T16:36:36.927Z,5.40
2019-01-13T16:39:08.754Z,5.40
2019-01-13T16:41:38.465Z,5.40
2019-01-13T16:44:08.328Z,5.50
2019-01-13T16:46:43.383Z,5.60
2019-01-13T16:49:09.466Z,5.50
2019-01-13T16:51:39.351Z,5.40
2019-01-13T16:54:09.111Z,5.40
2019-01-13T16:56:38.813Z,5.40
2019-01-13T16:59:08.523Z,5.50
2019-01-13T17:01:38.340Z,5.50
2019-01-13T17:04:08.198Z,5.40
2019-01-13T17:06:37.910Z,5.50
2019-01-13T17:09:12.041Z,5.50
2019-01-13T17:11:41.807Z,5.60
2019-01-13T17:14:11.513Z,5.40
2019-01-13T17:16:41.162Z,5.40
2019-01-13T17:19:10.955Z,5.50
2019-01-13T17:21:40.647Z,5.60
2019-01-13T17:24:10.510Z,5.40
2019-01-13T17:26:40.169Z,5.40
2019-01-13T17:29:09.876Z,5.40
2019-01-13T17:31:39.682Z,5.40
2019-01-13T17:34:09.444Z,5.40
2019-01-13T17:36:39.161Z,5.40
2019-01-13T17:39:10.079Z,5.20
2019-01-13T17:41:39.830Z,5.30
2019-01-13T17:44:09.511Z,5.30
2019-01-13T17:46:39.455Z,5.40
2019-01-13T17:49:09.118Z,5.50
2019-01-13T17:51:38.879Z,5.50
2019-01-13T17:54:08.611Z,5.60
2019-01-13T17:56:38.274Z,5.60
2019-01-13T17:59:08.099Z,5.70
2019-01-13T18:01:45.027Z,5.80
2019-01-13T18:04:15.024Z,5.80
2019-01-13T18:06:44.958Z,5.80
2019-01-13T18:09:14.689Z,5.80
2019-01-13T18:11:44.485Z,5.90
2019-01-13T18:14:14.155Z,5.90
2019-01-13T18:16:43.878Z,6.00
2019-01-13T18:19:13.716Z,6.00
2019-01-13T18:21:43.631Z,6.00
2019-01-13T18:24:13.352Z,6.00
2019-01-13T18:26:43.154Z,6.00
2019-01-13T18:29:12.889Z,6.00
2019-01-13T18:31:42.597Z,6.00
2019-01-13T18:34:12.298Z,6.00
2019-01-13T18:36:42.415Z,6.00
2019-01-13T18:39:12.189Z,6.10
2019-01-13T18:42:04.269Z,6.10
2019-01-13T18:44:29.442Z,6.20
2019-01-13T18:46:59.165Z,6.10
2019-01-13T18:49:28.875Z,6.10
2019-01-13T18:51:58.617Z,6.10
2019-01-13T18:54:28.311Z,6.20
2019-01-13T18:56:58.088Z,6.30
2019-01-13T18:59:27.798Z,6.40
2019-01-13T19:01:57.674Z,6.40
2019-01-13T19:04:27.359Z,6.50
2019-01-13T19:06:57.130Z,6.40
2019-01-13T19:09:26.905Z,6.40
2019-01-13T19:11:56.629Z,6.50
2019-01-13T19:14:44.613Z,6.50
2019-01-13T19:17:15.870Z,6.50
2019-01-13T19:20:12.863Z,6.50
2019-01-13T19:22:44.635Z,6.40
2019-01-13T19:25:20.595Z,6.60
2019-01-13T19:27:50.281Z,6.60
2019-01-13T19:30:20.126Z,6.70
2019-01-13T19:32:49.855Z,6.70
2019-01-13T19:35:19.575Z,6.70
2019-01-13T19:37:49.477Z,6.80
2019-01-13T19:40:19.337Z,6.80
2019-01-13T19:42:49.161Z,6.80
2019-01-13T19:45:20.197Z,6.80
2019-01-13T19:47:49.917Z,6.80
2019-01-13T19:50:21.877Z,6.80
2019-01-13T19:52:51.599Z,6.90
2019-01-13T19:55:21.669Z,6.90
2019-01-13T19:57:51.961Z,6.90
2019-01-13T20:00:33.730Z,6.90
2019-01-13T20:03:04.565Z,6.70
2019-01-13T20:05:34.558Z,6.70
2019-01-13T20:08:04.760Z,6.70
2019-01-13T20:10:34.969Z,6.70
2019-01-13T20:13:04.744Z,6.80
2019-01-13T20:15:34.593Z,6.80
2019-01-13T20:18:04.511Z,6.90
2019-01-13T20:20:34.255Z,6.70
2019-01-13T20:23:05.456Z,6.70
2019-01-13T20:25:35.157Z,6.70
2019-01-13T20:28:05.971Z,6.70
2019-01-13T20:30:36.211Z,6.60
2019-01-13T20:33:06.862Z,6.60
2019-01-13T20:35:37.404Z,6.60
2019-01-13T20:38:09.666Z,6.50
2019-01-13T20:40:39.846Z,6.50
2019-01-13T20:43:09.683Z,6.40
2019-01-13T20:45:42.455Z,6.30
2019-01-13T20:48:13.097Z,6.10
2019-01-13T20:50:42.836Z,6.10
2019-01-13T20:53:12.623Z,5.90
2019-01-13T20:55:42.357Z,5.80
2019-01-13T20:58:12.126Z,5.80
2019-01-13T21:00:41.939Z,5.80
2019-01-13T21:03:12.524Z,5.70
2019-01-13T21:05:42.273Z,5.70
2019-01-13T21:08:12.041Z,5.70
2019-01-13T21:10:41.791Z,5.70
2019-01-13T21:13:11.508Z,5.70
2019-01-13T21:15:42.291Z,5.70
2019-01-13T21:18:11.986Z,5.60
2019-01-13T21:20:41.727Z,5.60
2019-01-13T21:23:11.538Z,5.50
2019-01-13T21:25:41.344Z,5.40
2019-01-13T21:28:12.649Z,5.50
2019-01-13T21:30:42.418Z,5.50
2019-01-13T21:33:12.221Z,5.40
2019-01-13T21:35:41.976Z,5.40
2019-01-13T21:38:11.772Z,5.50
2019-01-13T21:40:41.474Z,5.50
2019-01-13T21:43:11.219Z,5.40
2019-01-13T21:45:41.064Z,5.30
2019-01-13T21:48:10.968Z,5.30
2019-01-13T21:50:40.805Z,5.20
2019-01-13T21:53:10.563Z,5.20
2019-01-13T21:55:40.408Z,5.10
2019-01-13T21:58:10.109Z,5.10
2019-01-13T22:00:39.933Z,5.20
2019-01-13T22:03:09.748Z,5.20
2019-01-13T22:05:41.219Z,5.20
2019-01-13T22:08:11.154Z,5.10
2019-01-13T22:10:41.029Z,5.00
2019-01-13T22:13:11.294Z,5.00
2019-01-13T22:15:41.152Z,5.10
2019-01-13T22:18:11.240Z,5.10
2019-01-13T22:20:41.218Z,5.10
2019-01-13T22:23:10.983Z,5.20
2019-01-13T22:25:40.779Z,5.10
2019-01-13T22:28:10.487Z,5.10
2019-01-13T22:30:40.401Z,5.10
2019-01-13T22:33:10.208Z,5.00
2019-01-13T22:35:39.936Z,5.10
2019-01-13T22:38:09.668Z,5.10
2019-01-13T22:40:39.351Z,5.10
2019-01-13T22:43:09.197Z,5.10
2019-01-13T22:45:39.083Z,5.20
2019-01-13T22:48:08.833Z,5.20
2019-01-13T22:50:38.644Z,5.20
2019-01-13T22:53:08.396Z,5.20
2019-01-13T22:55:38.291Z,5.30
2019-01-13T22:58:08.229Z,5.30
2019-01-13T23:01:09.106Z,5.30
2019-01-13T23:03:39.886Z,5.30
2019-01-13T23:06:09.543Z,5.30
2019-01-13T23:08:39.354Z,5.30
2019-01-13T23:11:09.046Z,5.30
2019-01-13T23:13:38.763Z,5.30
2019-01-13T23:16:08.505Z,5.30
2019-01-13T23:18:38.270Z,5.30
2019-01-13T23:21:08.011Z,5.30
2019-01-13T23:23:37.750Z,5.30
2019-01-13T23:26:07.401Z,5.30
2019-01-13T23:28:37.187Z,5.20
2019-01-13T23:31:06.916Z,5.20
2019-01-13T23:33:36.636Z,5.10
2019-01-13T23:36:06.403Z,5.10
2019-01-13T23:38:36.131Z,5.00
2019-01-13T23:41:05.805Z,5.00
2019-01-13T23:43:35.466Z,4.90
2019-01-13T23:46:05.412Z,4.90
2019-01-13T23:48:35.092Z,4.90
2019-01-13T23:51:04.785Z,4.80
2019-01-13T23:53:34.512Z,4.70
2019-01-13T23:56:04.297Z,4.60
2019-01-13T23:58:34.014Z,4.60
